createdAt,value
2019-02-05T00:01:23.478Z,19.53
2019-02-05T00:04:27.365Z,21.50
2019-02-05T00:07:31.171Z,28.90
2019-02-05T00:10:35.133Z,30.80
2019-02-05T00:13:38.932Z,29.67
2019-02-05T00:16:42.876Z,22.87
2019-02-05T00:19:46.767Z,35.43
2019-02-05T00:22:50.702Z,32.63
2019-02-05T00:26:05.668Z,36.77
2019-02-05T00:29:00.059Z,30.00
2019-02-05T00:32:03.929Z,33.70
2019-02-05T00:35:08.114Z,39.30
2019-02-05T00:38:12.087Z,31.70
2019-02-05T00:41:15.957Z,35.30
2019-02-05T00:44:19.769Z,31.97
2019-02-05T00:47:23.742Z,31.43
2019-02-05T00:50:27.623Z,28.30
2019-02-05T00:53:31.430Z,20.50
2019-02-05T00:56:35.307Z,29.87
2019-02-05T00:59:39.149Z,29.60
2019-02-05T01:02:43.099Z,33.40
2019-02-05T01:05:47.012Z,29.03
2019-02-05T01:08:50.815Z,33.57
2019-02-05T01:11:54.634Z,35.97
2019-02-05T01:14:58.511Z,38.23
2019-02-05T01:18:02.676Z,41.47
2019-02-05T01:21:06.630Z,40.47
2019-02-05T01:24:10.454Z,43.87
2019-02-05T01:27:14.781Z,41.70
2019-02-05T01:30:21.121Z,33.17
2019-02-05T01:33:24.951Z,48.23
2019-02-05T01:36:28.857Z,41.90
2019-02-05T01:39:32.667Z,38.37
2019-02-05T01:42:36.643Z,43.67
2019-02-05T01:45:40.542Z,29.97
2019-02-05T01:48:44.365Z,47.23
2019-02-05T01:51:48.293Z,45.77
2019-02-05T01:54:53.351Z,30.80
2019-02-05T01:57:58.553Z,39.50
2019-02-05T02:01:02.429Z,51.13
2019-02-05T02:04:06.311Z,38.33
2019-02-05T02:07:10.742Z,50.27
2019-02-05T02:10:17.415Z,47.07
2019-02-05T02:13:21.303Z,39.20
2019-02-05T02:16:25.307Z,34.00
2019-02-05T02:19:29.305Z,33.70
2019-02-05T02:22:33.128Z,47.10
2019-02-05T02:25:37.002Z,35.87
2019-02-05T02:28:40.903Z,46.20
2019-02-05T02:31:44.717Z,29.83
2019-02-05T02:34:48.516Z,42.20
2019-02-05T02:37:52.600Z,39.07
2019-02-05T02:40:56.646Z,38.57
2019-02-05T02:44:00.445Z,38.23
2019-02-05T02:47:04.417Z,40.50
2019-02-05T02:50:10.062Z,43.50
2019-02-05T02:53:13.934Z,36.07
2019-02-05T02:56:17.873Z,34.40
2019-02-05T02:59:37.556Z,25.03
2019-02-05T03:02:41.438Z,31.67
2019-02-05T03:05:45.415Z,37.50
2019-02-05T03:08:49.258Z,39.10
2019-02-05T03:11:53.303Z,38.60
2019-02-05T03:14:57.211Z,32.87
2019-02-05T03:18:01.035Z,30.53
2019-02-05T03:21:05.106Z,35.37
2019-02-05T03:24:09.010Z,30.60
2019-02-05T03:27:17.979Z,28.13
2019-02-05T03:30:20.068Z,29.80
2019-02-05T03:33:24.035Z,32.27
2019-02-05T03:36:27.899Z,28.13
2019-02-05T03:39:31.736Z,27.50
2019-02-05T03:42:35.554Z,38.47
2019-02-05T03:45:39.511Z,27.60
2019-02-05T03:48:45.039Z,28.97
2019-02-05T03:52:34.717Z,29.07
2019-02-05T03:56:11.942Z,29.50
2019-02-05T03:59:34.148Z,36.83
2019-02-05T04:03:01.845Z,28.43
2019-02-05T04:06:39.140Z,37.13
2019-02-05T04:10:11.296Z,34.33
2019-02-05T04:13:48.478Z,34.47
2019-02-05T04:17:23.569Z,30.97
2019-02-05T04:20:54.985Z,32.93
2019-02-05T04:24:32.279Z,36.13
2019-02-05T04:27:59.733Z,25.97
2019-02-05T04:31:12.455Z,33.83
2019-02-05T04:34:40.964Z,34.77
2019-02-05T04:38:33.995Z,35.27
2019-02-05T04:42:34.610Z,23.57
2019-02-05T04:46:16.638Z,37.90
2019-02-05T04:50:13.826Z,29.13
2019-02-05T04:54:05.049Z,30.40
2019-02-05T04:57:30.332Z,31.20
2019-02-05T05:00:59.899Z,34.13
2019-02-05T05:04:29.244Z,33.87
2019-02-05T05:08:00.338Z,33.50
2019-02-05T05:11:04.333Z,33.17
2019-02-05T05:14:08.699Z,32.53
2019-02-05T05:17:12.578Z,37.73
2019-02-05T05:20:16.537Z,38.10
2019-02-05T05:23:20.797Z,38.43
2019-02-05T05:26:24.748Z,34.23
2019-02-05T05:29:29.052Z,38.80
2019-02-05T05:32:33.131Z,39.83
2019-02-05T05:35:43.557Z,30.20
2019-02-05T05:38:42.644Z,40.47
2019-02-05T05:41:46.653Z,36.13
2019-02-05T05:44:50.515Z,28.70
2019-02-05T05:47:54.352Z,40.67
2019-02-05T05:50:58.211Z,43.30
2019-02-05T05:54:02.130Z,47.97
2019-02-05T05:57:06.097Z,29.77
2019-02-05T06:00:14.414Z,43.03
2019-02-05T06:03:18.222Z,34.63
2019-02-05T06:06:22.044Z,31.23
2019-02-05T06:09:25.945Z,33.13
2019-02-05T06:12:29.793Z,33.90
2019-02-05T06:15:35.851Z,31.97
2019-02-05T06:18:39.393Z,30.20
2019-02-05T06:21:43.247Z,39.83
2019-02-05T06:24:47.226Z,35.23
2019-02-05T06:27:51.206Z,34.80
2019-02-05T06:30:55.084Z,32.73
2019-02-05T06:33:58.938Z,29.90
2019-02-05T06:37:02.774Z,35.37
2019-02-05T06:40:07.754Z,32.53
2019-02-05T06:43:11.688Z,39.70
2019-02-05T06:46:15.515Z,30.93
2019-02-05T06:49:19.432Z,33.13
2019-02-05T06:52:23.413Z,33.63
2019-02-05T06:55:27.333Z,30.53
2019-02-05T06:58:31.334Z,34.33
2019-02-05T07:01:35.456Z,37.60
2019-02-05T07:04:39.326Z,36.10
2019-02-05T07:07:43.299Z,34.90
2019-02-05T07:10:47.662Z,45.80
2019-02-05T07:13:51.563Z,36.83
2019-02-05T07:16:55.457Z,37.10
2019-02-05T07:19:59.769Z,45.27
2019-02-05T07:23:03.827Z,34.47
2019-02-05T07:26:07.868Z,31.63
2019-02-05T07:29:11.717Z,36.87
2019-02-05T07:32:15.635Z,31.90
2019-02-05T07:35:19.694Z,44.67
2019-02-05T07:38:23.714Z,36.93
2019-02-05T07:41:27.635Z,28.73
2019-02-05T07:44:31.490Z,36.13
2019-02-05T07:47:35.329Z,47.47
2019-02-05T07:50:39.237Z,35.77
2019-02-05T07:53:43.347Z,27.70
2019-02-05T07:56:47.231Z,38.43
2019-02-05T07:59:51.037Z,30.20
2019-02-05T08:02:55.414Z,154.53
2019-02-05T08:05:59.331Z,38.03
2019-02-05T08:09:04.799Z,21.50
2019-02-05T08:12:08.722Z,28.13
2019-02-05T08:15:14.851Z,21.80
2019-02-05T08:18:18.821Z,26.80
2019-02-05T08:21:22.736Z,30.57
2019-02-05T08:24:26.546Z,29.30
2019-02-05T08:27:30.572Z,30.27
2019-02-05T08:30:37.589Z,32.10
2019-02-05T08:33:41.511Z,26.47
2019-02-05T08:36:45.470Z,22.40
2019-02-05T08:39:49.331Z,18.23
2019-02-05T08:42:53.255Z,27.67
2019-02-05T08:45:57.477Z,34.23
2019-02-05T08:49:01.363Z,39.73
2019-02-05T08:52:05.325Z,31.43
2019-02-05T08:55:10.501Z,30.57
2019-02-05T08:58:14.551Z,32.90
2019-02-05T09:01:18.507Z,34.87
2019-02-05T09:04:22.402Z,39.00
2019-02-05T09:07:26.245Z,45.30
2019-02-05T09:10:34.257Z,32.80
2019-02-05T09:13:38.054Z,26.80
2019-02-05T09:16:41.933Z,27.93
2019-02-05T09:19:45.705Z,26.30
2019-02-05T09:22:49.729Z,32.30
2019-02-05T09:25:53.586Z,26.20
2019-02-05T09:28:57.470Z,33.70
2019-02-05T09:32:01.368Z,13.50
2019-02-05T09:35:06.470Z,30.23
2019-02-05T09:38:10.444Z,15.27
2019-02-05T09:41:14.293Z,28.13
2019-02-05T09:44:18.130Z,21.67
2019-02-05T09:47:22.260Z,21.23
2019-02-05T09:50:26.078Z,31.23
2019-02-05T09:53:29.966Z,29.83
2019-02-05T09:56:34.185Z,20.30
2019-02-05T09:59:45.159Z,27.50
2019-02-05T10:02:43.614Z,23.43
2019-02-05T10:05:47.894Z,20.07
2019-02-05T10:08:51.737Z,30.50
2019-02-05T10:11:55.664Z,18.80
2019-02-05T10:14:59.574Z,28.83
2019-02-05T10:18:03.515Z,27.40
2019-02-05T10:21:07.490Z,23.30
2019-02-05T10:24:11.487Z,29.93
2019-02-05T10:27:15.301Z,27.97
2019-02-05T10:30:21.949Z,16.47
2019-02-05T10:33:25.740Z,17.90
2019-02-05T10:36:29.710Z,20.43
2019-02-05T10:39:33.581Z,29.13
2019-02-05T10:42:37.582Z,20.20
2019-02-05T10:45:41.524Z,23.93
2019-02-05T10:48:45.373Z,28.93
2019-02-05T10:51:49.184Z,26.03
2019-02-05T10:54:53.113Z,19.17
2019-02-05T10:57:57.277Z,22.63
2019-02-05T11:01:01.103Z,19.33
2019-02-05T11:04:05.161Z,17.60
2019-02-05T11:07:09.240Z,27.07
2019-02-05T11:10:13.356Z,19.93
2019-02-05T11:13:18.963Z,17.33
2019-02-05T11:16:23.008Z,33.40
2019-02-05T11:19:26.906Z,22.87
2019-02-05T11:22:31.119Z,28.77
2019-02-05T11:25:35.378Z,25.37
2019-02-05T11:28:39.164Z,26.00
2019-02-05T11:31:43.064Z,23.50
2019-02-05T11:34:46.859Z,22.10
2019-02-05T11:37:50.892Z,25.37
2019-02-05T11:40:55.054Z,21.90
2019-02-05T11:43:58.857Z,22.60
2019-02-05T11:47:03.984Z,22.53
2019-02-05T11:50:08.836Z,23.60
2019-02-05T11:53:12.782Z,28.60
2019-02-05T11:56:16.586Z,20.83
2019-02-05T11:59:20.544Z,28.90
2019-02-05T12:02:24.463Z,21.93
2019-02-05T12:05:28.283Z,15.17
2019-02-05T12:08:32.650Z,23.60
2019-02-05T12:11:36.489Z,18.33
2019-02-05T12:14:40.279Z,24.87
2019-02-05T12:17:44.226Z,19.67
2019-02-05T12:20:48.091Z,24.60
2019-02-05T12:23:52.099Z,26.03
2019-02-05T12:26:55.989Z,23.47
2019-02-05T12:29:59.797Z,21.47
2019-02-05T12:33:04.251Z,20.93
2019-02-05T12:36:08.160Z,28.30
2019-02-05T12:39:17.580Z,27.67
2019-02-05T12:42:21.442Z,30.00
2019-02-05T12:45:27.475Z,21.97
2019-02-05T12:48:31.401Z,29.57
2019-02-05T12:51:35.228Z,27.73
2019-02-05T12:54:39.102Z,27.30
2019-02-05T12:57:43.100Z,21.60
2019-02-05T13:00:57.988Z,31.47
2019-02-05T13:03:55.317Z,19.47
2019-02-05T13:06:59.193Z,24.30
2019-02-05T13:10:03.194Z,27.30
2019-02-05T13:13:08.142Z,21.47
2019-02-05T13:16:12.063Z,25.03
2019-02-05T13:19:15.903Z,25.93
2019-02-05T13:22:19.722Z,19.37
2019-02-05T13:25:25.280Z,27.93
2019-02-05T13:28:29.201Z,24.03
2019-02-05T13:31:34.056Z,25.50
2019-02-05T13:34:37.961Z,28.20
2019-02-05T13:37:41.902Z,26.17
2019-02-05T13:40:46.692Z,26.47
2019-02-05T13:43:50.557Z,35.70
2019-02-05T13:46:54.509Z,29.17
2019-02-05T13:49:58.326Z,18.67
2019-02-05T13:53:02.259Z,24.67
2019-02-05T13:56:07.199Z,23.23
2019-02-05T13:59:11.059Z,30.87
2019-02-05T14:02:14.950Z,23.93
2019-02-05T14:05:18.897Z,22.17
2019-02-05T14:08:22.971Z,24.43
2019-02-05T14:11:27.350Z,27.43
2019-02-05T14:14:31.252Z,30.97
2019-02-05T14:17:35.295Z,37.60
2019-02-05T14:20:39.254Z,26.47
2019-02-05T14:23:43.190Z,29.97
2019-02-05T14:26:47.253Z,31.27
2019-02-05T14:29:51.086Z,25.27
2019-02-05T14:32:54.959Z,31.30
2019-02-05T14:35:59.136Z,32.73
2019-02-05T14:39:04.481Z,34.57
2019-02-05T14:42:08.401Z,29.43
2019-02-05T14:45:12.982Z,31.50
2019-02-05T14:48:16.954Z,29.37
2019-02-05T14:51:20.871Z,29.93
2019-02-05T14:54:24.788Z,47.73
2019-02-05T14:57:28.661Z,27.50
2019-02-05T15:00:33.565Z,27.33
2019-02-05T15:03:37.444Z,20.93
2019-02-05T15:06:41.284Z,29.43
2019-02-05T15:09:45.123Z,25.03
2019-02-05T15:12:49.162Z,19.27
2019-02-05T15:15:53.088Z,19.57
2019-02-05T15:18:56.886Z,15.73
2019-02-05T15:22:00.682Z,17.30
2019-02-05T15:25:05.210Z,18.53
2019-02-05T15:28:09.213Z,21.33
2019-02-05T15:31:13.011Z,19.87
2019-02-05T15:34:25.401Z,24.07
2019-02-05T15:37:29.188Z,17.73
2019-02-05T15:40:33.126Z,19.33
2019-02-05T15:43:37.441Z,18.67
2019-02-05T15:46:41.322Z,39.30
2019-02-05T15:49:45.275Z,45.60
2019-02-05T15:52:49.493Z,26.27
2019-02-05T15:55:53.542Z,25.67
2019-02-05T15:58:57.750Z,23.60
2019-02-05T16:02:06.343Z,27.27
2019-02-05T16:05:08.951Z,34.33
2019-02-05T16:08:12.907Z,36.90
2019-02-05T16:11:17.039Z,25.07
2019-02-05T16:14:21.050Z,48.47
2019-02-05T16:17:25.840Z,41.57
2019-02-05T16:20:29.710Z,51.10
2019-02-05T16:23:33.588Z,56.80
2019-02-05T16:26:37.425Z,33.83
2019-02-05T16:29:49.659Z,43.97
2019-02-05T16:32:53.474Z,35.33
2019-02-05T16:35:57.384Z,64.10
2019-02-05T16:39:01.400Z,38.80
2019-02-05T16:42:05.488Z,38.57
2019-02-05T16:45:12.020Z,28.37
2019-02-05T16:48:15.969Z,38.97
2019-02-05T16:51:20.019Z,30.90
2019-02-05T16:54:23.988Z,23.63
2019-02-05T16:57:27.825Z,29.57
2019-02-05T17:00:32.991Z,32.30
2019-02-05T17:03:36.874Z,26.60
2019-02-05T17:06:40.795Z,24.33
2019-02-05T17:09:44.618Z,45.60
2019-02-05T17:12:48.661Z,20.00
2019-02-05T17:15:52.556Z,30.13
2019-02-05T17:18:56.437Z,37.10
2019-02-05T17:22:00.300Z,31.27
2019-02-05T17:25:04.871Z,34.83
2019-02-05T17:28:08.849Z,38.07
2019-02-05T17:31:12.758Z,36.67
2019-02-05T17:34:16.638Z,38.47
2019-02-05T17:37:20.545Z,33.90
2019-02-05T17:40:25.028Z,36.33
2019-02-05T17:43:28.882Z,39.93
2019-02-05T17:46:32.750Z,34.57
2019-02-05T17:49:36.598Z,39.83
2019-02-05T17:52:40.559Z,34.90
2019-02-05T17:55:44.555Z,33.60
2019-02-05T17:58:48.628Z,41.17
2019-02-05T18:01:52.512Z,34.93
2019-02-05T18:04:56.376Z,26.50
2019-02-05T18:08:00.207Z,28.77
2019-02-05T18:11:04.427Z,26.07
2019-02-05T18:14:08.347Z,24.53
2019-02-05T18:17:12.287Z,25.67
2019-02-05T18:20:16.391Z,91.87
2019-02-05T18:23:20.280Z,22.17
2019-02-05T18:26:24.073Z,26.90
2019-02-05T18:29:27.904Z,56.73
2019-02-05T18:32:31.731Z,46.70
2019-02-05T18:35:35.689Z,44.33
2019-02-05T18:38:40.079Z,56.80
2019-02-05T18:41:43.894Z,44.00
2019-02-05T18:44:48.295Z,46.17
2019-02-05T18:47:52.181Z,124.73
2019-02-05T18:50:56.063Z,63.83
2019-02-05T18:53:59.917Z,116.93
2019-02-05T18:57:03.889Z,98.20
2019-02-05T19:00:12.741Z,109.77
2019-02-05T19:03:16.712Z,84.17
2019-02-05T19:06:20.575Z,61.67
2019-02-05T19:09:24.380Z,106.70
2019-02-05T19:12:28.202Z,48.50
2019-02-05T19:15:33.683Z,169.03
2019-02-05T19:18:37.845Z,75.40
2019-02-05T19:21:41.682Z,86.13
2019-02-05T19:25:07.732Z,78.67
2019-02-05T19:28:16.140Z,54.63
2019-02-05T19:31:25.861Z,92.07
2019-02-05T19:34:29.652Z,73.87
2019-02-05T19:37:33.574Z,25.43
2019-02-05T19:40:37.495Z,38.07
2019-02-05T19:43:41.285Z,68.27
2019-02-05T19:46:57.527Z,69.80
2019-02-05T19:50:02.768Z,26.90
2019-02-05T19:53:07.080Z,27.23
2019-02-05T19:56:10.910Z,106.37
2019-02-05T19:59:14.731Z,55.23
2019-02-05T20:02:18.738Z,43.10
2019-02-05T20:05:22.562Z,52.27
2019-02-05T20:08:26.970Z,43.40
2019-02-05T20:11:30.902Z,75.73
2019-02-05T20:14:34.795Z,100.23
2019-02-05T20:17:39.051Z,124.43
2019-02-05T20:20:42.842Z,33.57
2019-02-05T20:23:46.719Z,139.57
2019-02-05T20:26:51.015Z,48.60
2019-02-05T20:29:54.845Z,64.80
2019-02-05T20:32:58.720Z,56.07
2019-02-05T20:36:02.665Z,68.97
2019-02-05T20:39:12.969Z,46.90
2019-02-05T20:42:16.814Z,71.33
2019-02-05T20:45:21.070Z,59.00
2019-02-05T20:48:24.925Z,54.83
2019-02-05T20:51:28.806Z,44.13
2019-02-05T20:54:32.735Z,76.77
2019-02-05T20:57:36.540Z,52.80
2019-02-05T21:00:40.485Z,58.67
2019-02-05T21:03:44.370Z,57.60
2019-02-05T21:06:48.280Z,39.37
2019-02-05T21:09:52.069Z,55.83
2019-02-05T21:12:55.976Z,151.83
2019-02-05T21:15:59.917Z,91.13
2019-02-05T21:19:03.819Z,143.67
2019-02-05T21:22:09.026Z,118.83
2019-02-05T21:25:14.756Z,116.57
2019-02-05T21:28:18.748Z,111.60
2019-02-05T21:31:22.580Z,112.93
2019-02-05T21:34:26.463Z,111.57
2019-02-05T21:37:30.274Z,63.57
2019-02-05T21:40:34.080Z,72.03
2019-02-05T21:43:37.874Z,61.60
2019-02-05T21:46:41.995Z,63.73
2019-02-05T21:49:45.939Z,64.00
2019-02-05T21:52:49.853Z,60.40
2019-02-05T21:55:54.202Z,72.60
2019-02-05T21:58:58.021Z,71.00
2019-02-05T22:02:01.980Z,85.87
2019-02-05T22:05:08.154Z,74.13
2019-02-05T22:08:12.120Z,88.03
2019-02-05T22:11:16.025Z,79.27
2019-02-05T22:14:19.857Z,102.50
2019-02-05T22:17:23.661Z,80.03
2019-02-05T22:20:27.649Z,88.23
2019-02-05T22:23:31.525Z,119.10
2019-02-05T22:26:35.508Z,117.30
2019-02-05T22:29:39.619Z,93.43
2019-02-05T22:32:43.542Z,96.03
2019-02-05T22:35:47.367Z,122.27
2019-02-05T22:38:51.288Z,88.77
2019-02-05T22:41:55.509Z,99.73
2019-02-05T22:44:59.333Z,79.13
2019-02-05T22:48:03.325Z,101.90
2019-02-05T22:51:07.236Z,115.97
2019-02-05T22:54:11.137Z,116.90
2019-02-05T22:57:14.968Z,117.97
2019-02-05T23:00:31.583Z,136.03
2019-02-05T23:03:44.743Z,109.10
2019-02-05T23:07:00.559Z,119.30
2019-02-05T23:10:47.233Z,115.63
2019-02-05T23:13:51.294Z,130.60
2019-02-05T23:16:55.278Z,126.90
2019-02-05T23:19:59.413Z,127.07
2019-02-05T23:23:03.309Z,119.43
2019-02-05T23:26:07.216Z,141.50
2019-02-05T23:29:11.328Z,117.63
2019-02-05T23:32:15.281Z,116.30
2019-02-05T23:35:19.181Z,105.97
2019-02-05T23:38:29.506Z,122.57
2019-02-05T23:41:28.957Z,111.90
2019-02-05T23:44:32.849Z,123.97
2019-02-05T23:47:37.037Z,112.40
2019-02-05T23:50:40.869Z,126.70
2019-02-05T23:53:44.711Z,118.23
2019-02-05T23:56:48.816Z,124.63
2019-02-05T23:59:52.611Z,129.03
